sensor_id;sensor_type;location;lat;lon;timestamp;P1;durP1;ratioP1;P2;durP2;ratioP2
9465;SDS011;4771;48.726;9.006;2022-09-14T00:00:47;2.35;;;1.60;;
9465;SDS011;4771;48.726;9.006;2022-09-14T00:03:14;2.45;;;1.70;;
9465;SDS011;4771;48.726;9.006;2022-09-14T00:05:42;2.20;;;1.80;;
9465;SDS011;4771;48.726;9.006;2022-09-14T00:08:10;2.80;;;1.60;;
9465;SDS011;4771;48.726;9.006;2022-09-14T00:10:38;3.67;;;1.50;;
9465;SDS011;4771;48.726;9.006;2022-09-14T00:13:06;4.53;;;1.80;;
9465;SDS011;4771;48.726;9.006;2022-09-14T00:15:34;2.55;;;1.60;;
9465;SDS011;4771;48.726;9.006;2022-09-14T00:18:02;2.50;;;1.70;;
9465;SDS011;4771;48.726;9.006;2022-09-14T00:20:29;4.25;;;1.60;;
9465;SDS011;4771;48.726;9.006;2022-09-14T00:22:58;5.03;;;1.88;;
9465;SDS011;4771;48.726;9.006;2022-09-14T00:25:25;1.80;;;1.40;;
9465;SDS011;4771;48.726;9.006;2022-09-14T00:27:52;2.63;;;1.58;;
9465;SDS011;4771;48.726;9.006;2022-09-14T00:30:19;2.63;;;1.70;;
9465;SDS011;4771;48.726;9.006;2022-09-14T00:32:48;2.45;;;1.67;;
9465;SDS011;4771;48.726;9.006;2022-09-14T00:35:16;2.38;;;1.70;;
9465;SDS011;4771;48.726;9.006;2022-09-14T00:37:43;3.15;;;1.70;;
9465;SDS011;4771;48.726;9.006;2022-09-14T00:40:14;1.92;;;1.70;;
9465;SDS011;4771;48.726;9.006;2022-09-14T00:42:42;4.68;;;1.67;;
9465;SDS011;4771;48.726;9.006;2022-09-14T00:45:12;3.05;;;1.58;;
9465;SDS011;4771;48.726;9.006;2022-09-14T00:47:45;2.05;;;1.65;;
9465;SDS011;4771;48.726;9.006;2022-09-14T00:50:14;4.22;;;1.50;;
9465;SDS011;4771;48.726;9.006;2022-09-14T00:52:42;3.25;;;1.60;;
9465;SDS011;4771;48.726;9.006;2022-09-14T00:55:12;2.20;;;1.65;;
9465;SDS011;4771;48.726;9.006;2022-09-14T00:57:43;3.28;;;1.63;;
9465;SDS011;4771;48.726;9.006;2022-09-14T01:00:13;3.25;;;1.70;;
9465;SDS011;4771;48.726;9.006;2022-09-14T01:02:43;2.95;;;1.50;;
9465;SDS011;4771;48.726;9.006;2022-09-14T01:05:10;3.75;;;1.85;;
9465;SDS011;4771;48.726;9.006;2022-09-14T01:07:44;2.17;;;1.67;;
9465;SDS011;4771;48.726;9.006;2022-09-14T01:10:20;3.42;;;1.95;;
9465;SDS011;4771;48.726;9.006;2022-09-14T01:12:57;2.53;;;1.73;;
9465;SDS011;4771;48.726;9.006;2022-09-14T01:15:34;3.75;;;1.77;;
9465;SDS011;4771;48.726;9.006;2022-09-14T01:18:09;3.25;;;2.03;;
9465;SDS011;4771;48.726;9.006;2022-09-14T01:20:44;4.03;;;2.35;;
9465;SDS011;4771;48.726;9.006;2022-09-14T01:23:16;8.63;;;2.88;;
9465;SDS011;4771;48.726;9.006;2022-09-14T01:26:02;9.35;;;3.10;;
9465;SDS011;4771;48.726;9.006;2022-09-14T01:28:52;8.48;;;3.42;;
9465;SDS011;4771;48.726;9.006;2022-09-14T01:31:25;5.05;;;2.50;;
9465;SDS011;4771;48.726;9.006;2022-09-14T01:33:59;5.57;;;2.60;;
9465;SDS011;4771;48.726;9.006;2022-09-14T01:36:34;4.20;;;2.08;;
9465;SDS011;4771;48.726;9.006;2022-09-14T01:39:05;7.43;;;2.70;;
9465;SDS011;4771;48.726;9.006;2022-09-14T01:41:34;7.82;;;2.40;;
9465;SDS011;4771;48.726;9.006;2022-09-14T01:44:06;7.03;;;2.53;;
9465;SDS011;4771;48.726;9.006;2022-09-14T01:46:38;12.90;;;3.00;;
9465;SDS011;4771;48.726;9.006;2022-09-14T01:49:10;7.00;;;3.05;;
9465;SDS011;4771;48.726;9.006;2022-09-14T01:51:43;5.38;;;2.50;;
9465;SDS011;4771;48.726;9.006;2022-09-14T01:54:13;6.22;;;3.00;;
9465;SDS011;4771;48.726;9.006;2022-09-14T01:56:46;4.70;;;2.67;;
9465;SDS011;4771;48.726;9.006;2022-09-14T01:59:19;9.35;;;3.20;;
9465;SDS011;4771;48.726;9.006;2022-09-14T02:01:49;5.22;;;3.10;;
9465;SDS011;4771;48.726;9.006;2022-09-14T02:04:24;7.32;;;3.10;;
9465;SDS011;4771;48.726;9.006;2022-09-14T02:06:56;4.72;;;2.90;;
9465;SDS011;4771;48.726;9.006;2022-09-14T02:09:23;4.28;;;3.08;;
9465;SDS011;4771;48.726;9.006;2022-09-14T02:11:52;5.63;;;3.00;;
9465;SDS011;4771;48.726;9.006;2022-09-14T02:14:26;6.60;;;3.00;;
9465;SDS011;4771;48.726;9.006;2022-09-14T02:16:53;4.65;;;3.03;;
9465;SDS011;4771;48.726;9.006;2022-09-14T02:19:20;8.02;;;3.00;;
9465;SDS011;4771;48.726;9.006;2022-09-14T02:21:49;5.82;;;3.38;;
9465;SDS011;4771;48.726;9.006;2022-09-14T02:24:17;9.27;;;3.45;;
9465;SDS011;4771;48.726;9.006;2022-09-14T02:26:44;5.32;;;3.28;;
9465;SDS011;4771;48.726;9.006;2022-09-14T02:29:14;7.80;;;3.08;;
9465;SDS011;4771;48.726;9.006;2022-09-14T02:31:45;4.70;;;2.70;;
9465;SDS011;4771;48.726;9.006;2022-09-14T02:34:22;5.75;;;3.10;;
9465;SDS011;4771;48.726;9.006;2022-09-14T02:36:56;4.25;;;3.05;;
9465;SDS011;4771;48.726;9.006;2022-09-14T02:39:30;6.50;;;3.15;;
9465;SDS011;4771;48.726;9.006;2022-09-14T02:42:06;5.82;;;2.88;;
9465;SDS011;4771;48.726;9.006;2022-09-14T02:44:40;3.75;;;3.38;;
9465;SDS011;4771;48.726;9.006;2022-09-14T02:47:14;4.95;;;3.50;;
9465;SDS011;4771;48.726;9.006;2022-09-14T02:49:47;5.38;;;3.30;;
9465;SDS011;4771;48.726;9.006;2022-09-14T02:52:20;4.35;;;3.10;;
9465;SDS011;4771;48.726;9.006;2022-09-14T02:54:53;5.22;;;3.20;;
9465;SDS011;4771;48.726;9.006;2022-09-14T02:57:25;5.80;;;3.78;;
9465;SDS011;4771;48.726;9.006;2022-09-14T02:59:52;4.28;;;2.95;;
9465;SDS011;4771;48.726;9.006;2022-09-14T03:02:21;4.70;;;3.20;;
9465;SDS011;4771;48.726;9.006;2022-09-14T03:04:48;6.63;;;3.40;;
9465;SDS011;4771;48.726;9.006;2022-09-14T03:07:15;5.60;;;2.90;;
9465;SDS011;4771;48.726;9.006;2022-09-14T03:09:42;4.47;;;3.03;;
9465;SDS011;4771;48.726;9.006;2022-09-14T03:12:09;7.90;;;4.00;;
9465;SDS011;4771;48.726;9.006;2022-09-14T03:14:36;4.60;;;3.10;;
9465;SDS011;4771;48.726;9.006;2022-09-14T03:17:03;8.40;;;3.78;;
9465;SDS011;4771;48.726;9.006;2022-09-14T03:19:31;7.53;;;3.55;;
9465;SDS011;4771;48.726;9.006;2022-09-14T03:21:58;6.00;;;3.55;;
9465;SDS011;4771;48.726;9.006;2022-09-14T03:24:25;5.72;;;3.58;;
9465;SDS011;4771;48.726;9.006;2022-09-14T03:26:52;6.88;;;3.70;;
9465;SDS011;4771;48.726;9.006;2022-09-14T03:29:19;8.18;;;4.00;;
9465;SDS011;4771;48.726;9.006;2022-09-14T03:31:46;6.45;;;3.58;;
9465;SDS011;4771;48.726;9.006;2022-09-14T03:34:13;6.47;;;3.70;;
9465;SDS011;4771;48.726;9.006;2022-09-14T03:36:41;5.90;;;4.05;;
9465;SDS011;4771;48.726;9.006;2022-09-14T03:39:08;7.05;;;4.22;;
9465;SDS011;4771;48.726;9.006;2022-09-14T03:41:36;6.22;;;3.95;;
9465;SDS011;4771;48.726;9.006;2022-09-14T03:44:03;4.30;;;3.70;;
9465;SDS011;4771;48.726;9.006;2022-09-14T03:46:30;4.28;;;3.88;;
9465;SDS011;4771;48.726;9.006;2022-09-14T03:48:57;4.85;;;3.67;;
9465;SDS011;4771;48.726;9.006;2022-09-14T03:51:24;4.93;;;3.90;;
9465;SDS011;4771;48.726;9.006;2022-09-14T03:53:52;6.88;;;3.80;;
9465;SDS011;4771;48.726;9.006;2022-09-14T03:56:21;5.30;;;3.60;;
9465;SDS011;4771;48.726;9.006;2022-09-14T03:58:48;5.63;;;3.50;;
9465;SDS011;4771;48.726;9.006;2022-09-14T04:01:16;4.22;;;3.25;;
9465;SDS011;4771;48.726;9.006;2022-09-14T04:03:45;4.22;;;3.80;;
9465;SDS011;4771;48.726;9.006;2022-09-14T04:06:12;4.65;;;3.88;;
9465;SDS011;4771;48.726;9.006;2022-09-14T04:08:40;4.68;;;3.72;;
9465;SDS011;4771;48.726;9.006;2022-09-14T04:11:10;5.10;;;3.58;;
9465;SDS011;4771;48.726;9.006;2022-09-14T04:13:40;6.47;;;3.83;;
9465;SDS011;4771;48.726;9.006;2022-09-14T04:16:07;9.05;;;3.75;;
9465;SDS011;4771;48.726;9.006;2022-09-14T04:18:34;5.70;;;3.90;;
9465;SDS011;4771;48.726;9.006;2022-09-14T04:21:03;5.68;;;3.88;;
9465;SDS011;4771;48.726;9.006;2022-09-14T04:23:31;5.63;;;3.80;;
9465;SDS011;4771;48.726;9.006;2022-09-14T04:25:59;6.05;;;3.83;;
9465;SDS011;4771;48.726;9.006;2022-09-14T04:28:27;5.07;;;3.75;;
9465;SDS011;4771;48.726;9.006;2022-09-14T04:30:55;7.00;;;3.63;;
9465;SDS011;4771;48.726;9.006;2022-09-14T04:33:23;8.10;;;3.83;;
9465;SDS011;4771;48.726;9.006;2022-09-14T04:35:57;5.13;;;3.92;;
9465;SDS011;4771;48.726;9.006;2022-09-14T04:38:27;4.95;;;4.03;;
9465;SDS011;4771;48.726;9.006;2022-09-14T04:40:55;6.18;;;4.03;;
9465;SDS011;4771;48.726;9.006;2022-09-14T04:43:22;5.10;;;4.30;;
9465;SDS011;4771;48.726;9.006;2022-09-14T04:45:51;6.63;;;4.53;;
9465;SDS011;4771;48.726;9.006;2022-09-14T04:48:19;6.32;;;4.38;;
9465;SDS011;4771;48.726;9.006;2022-09-14T04:50:46;7.30;;;4.47;;
9465;SDS011;4771;48.726;9.006;2022-09-14T04:53:13;7.85;;;4.47;;
9465;SDS011;4771;48.726;9.006;2022-09-14T04:55:40;6.43;;;4.93;;
9465;SDS011;4771;48.726;9.006;2022-09-14T04:58:07;7.07;;;4.38;;
9465;SDS011;4771;48.726;9.006;2022-09-14T05:00:34;5.20;;;4.25;;
9465;SDS011;4771;48.726;9.006;2022-09-14T05:03:03;5.95;;;4.15;;
9465;SDS011;4771;48.726;9.006;2022-09-14T05:05:33;7.13;;;4.40;;
9465;SDS011;4771;48.726;9.006;2022-09-14T05:08:02;8.10;;;3.92;;
9465;SDS011;4771;48.726;9.006;2022-09-14T05:10:29;7.45;;;4.65;;
9465;SDS011;4771;48.726;9.006;2022-09-14T05:12:56;7.00;;;4.53;;
9465;SDS011;4771;48.726;9.006;2022-09-14T05:15:23;8.35;;;4.53;;
9465;SDS011;4771;48.726;9.006;2022-09-14T05:17:50;9.20;;;4.45;;
9465;SDS011;4771;48.726;9.006;2022-09-14T05:20:18;6.10;;;4.60;;
9465;SDS011;4771;48.726;9.006;2022-09-14T05:22:47;6.97;;;4.80;;
9465;SDS011;4771;48.726;9.006;2022-09-14T05:25:15;8.73;;;4.93;;
9465;SDS011;4771;48.726;9.006;2022-09-14T05:27:42;6.53;;;5.22;;
9465;SDS011;4771;48.726;9.006;2022-09-14T05:30:09;8.23;;;4.72;;
9465;SDS011;4771;48.726;9.006;2022-09-14T05:32:36;6.22;;;5.47;;
9465;SDS011;4771;48.726;9.006;2022-09-14T05:35:03;5.60;;;5.00;;
9465;SDS011;4771;48.726;9.006;2022-09-14T05:37:32;10.43;;;5.65;;
9465;SDS011;4771;48.726;9.006;2022-09-14T05:39:59;7.05;;;5.43;;
9465;SDS011;4771;48.726;9.006;2022-09-14T05:42:26;11.02;;;5.32;;
9465;SDS011;4771;48.726;9.006;2022-09-14T05:44:53;9.80;;;5.30;;
9465;SDS011;4771;48.726;9.006;2022-09-14T05:47:20;6.28;;;4.97;;
9465;SDS011;4771;48.726;9.006;2022-09-14T05:49:47;7.93;;;5.00;;
9465;SDS011;4771;48.726;9.006;2022-09-14T05:52:14;6.35;;;5.20;;
9465;SDS011;4771;48.726;9.006;2022-09-14T05:54:42;6.47;;;5.57;;
9465;SDS011;4771;48.726;9.006;2022-09-14T05:57:09;6.18;;;5.53;;
9465;SDS011;4771;48.726;9.006;2022-09-14T05:59:36;7.95;;;5.10;;
9465;SDS011;4771;48.726;9.006;2022-09-14T06:02:03;10.13;;;5.35;;
9465;SDS011;4771;48.726;9.006;2022-09-14T06:04:31;8.55;;;5.88;;
9465;SDS011;4771;48.726;9.006;2022-09-14T06:06:58;11.80;;;5.20;;
9465;SDS011;4771;48.726;9.006;2022-09-14T06:09:25;5.90;;;4.90;;
9465;SDS011;4771;48.726;9.006;2022-09-14T06:11:53;7.90;;;5.40;;
9465;SDS011;4771;48.726;9.006;2022-09-14T06:14:20;6.32;;;5.18;;
9465;SDS011;4771;48.726;9.006;2022-09-14T06:16:47;5.63;;;5.00;;
9465;SDS011;4771;48.726;9.006;2022-09-14T06:19:14;7.63;;;4.90;;
9465;SDS011;4771;48.726;9.006;2022-09-14T06:21:41;5.13;;;4.63;;
9465;SDS011;4771;48.726;9.006;2022-09-14T06:24:08;8.23;;;4.43;;
9465;SDS011;4771;48.726;9.006;2022-09-14T06:26:36;7.70;;;4.70;;
9465;SDS011;4771;48.726;9.006;2022-09-14T06:29:05;8.07;;;5.07;;
9465;SDS011;4771;48.726;9.006;2022-09-14T06:31:32;8.75;;;4.70;;
9465;SDS011;4771;48.726;9.006;2022-09-14T06:33:59;6.30;;;5.22;;
9465;SDS011;4771;48.726;9.006;2022-09-14T06:36:28;8.73;;;4.57;;
9465;SDS011;4771;48.726;9.006;2022-09-14T06:38:55;5.90;;;3.63;;
9465;SDS011;4771;48.726;9.006;2022-09-14T06:41:26;9.60;;;4.60;;
9465;SDS011;4771;48.726;9.006;2022-09-14T06:43:55;6.40;;;5.15;;
9465;SDS011;4771;48.726;9.006;2022-09-14T06:46:24;5.40;;;4.38;;
9465;SDS011;4771;48.726;9.006;2022-09-14T06:48:54;7.38;;;3.88;;
9465;SDS011;4771;48.726;9.006;2022-09-14T06:51:22;7.25;;;4.55;;
9465;SDS011;4771;48.726;9.006;2022-09-14T06:53:51;6.00;;;3.78;;
9465;SDS011;4771;48.726;9.006;2022-09-14T06:56:19;9.25;;;4.65;;
9465;SDS011;4771;48.726;9.006;2022-09-14T06:58:46;10.90;;;4.38;;
9465;SDS011;4771;48.726;9.006;2022-09-14T07:01:14;4.82;;;3.83;;
9465;SDS011;4771;48.726;9.006;2022-09-14T07:03:45;9.57;;;4.20;;
9465;SDS011;4771;48.726;9.006;2022-09-14T07:06:13;8.80;;;4.05;;
9465;SDS011;4771;48.726;9.006;2022-09-14T07:08:42;5.70;;;4.00;;
9465;SDS011;4771;48.726;9.006;2022-09-14T07:11:10;6.80;;;3.78;;
9465;SDS011;4771;48.726;9.006;2022-09-14T07:13:38;8.18;;;3.85;;
9465;SDS011;4771;48.726;9.006;2022-09-14T07:16:06;4.60;;;3.38;;
9465;SDS011;4771;48.726;9.006;2022-09-14T07:18:33;7.93;;;3.75;;
9465;SDS011;4771;48.726;9.006;2022-09-14T07:21:02;7.18;;;3.60;;
9465;SDS011;4771;48.726;9.006;2022-09-14T07:23:30;5.00;;;3.45;;
9465;SDS011;4771;48.726;9.006;2022-09-14T07:25:58;9.32;;;3.42;;
9465;SDS011;4771;48.726;9.006;2022-09-14T07:28:26;7.63;;;3.40;;
9465;SDS011;4771;48.726;9.006;2022-09-14T07:30:53;9.18;;;3.38;;
9465;SDS011;4771;48.726;9.006;2022-09-14T07:33:20;8.75;;;3.53;;
9465;SDS011;4771;48.726;9.006;2022-09-14T07:35:47;4.10;;;3.25;;
9465;SDS011;4771;48.726;9.006;2022-09-14T07:38:15;4.35;;;3.40;;
9465;SDS011;4771;48.726;9.006;2022-09-14T07:40:42;8.85;;;4.20;;
9465;SDS011;4771;48.726;9.006;2022-09-14T07:43:10;9.00;;;4.85;;
9465;SDS011;4771;48.726;9.006;2022-09-14T07:45:37;4.75;;;3.40;;
9465;SDS011;4771;48.726;9.006;2022-09-14T07:48:04;5.13;;;3.03;;
9465;SDS011;4771;48.726;9.006;2022-09-14T07:50:31;4.75;;;3.10;;
9465;SDS011;4771;48.726;9.006;2022-09-14T07:52:58;5.95;;;2.95;;
9465;SDS011;4771;48.726;9.006;2022-09-14T07:55:26;8.27;;;3.45;;
9465;SDS011;4771;48.726;9.006;2022-09-14T07:57:54;6.97;;;3.13;;
9465;SDS011;4771;48.726;9.006;2022-09-14T08:00:21;6.00;;;3.88;;
9465;SDS011;4771;48.726;9.006;2022-09-14T08:02:50;6.95;;;3.13;;
9465;SDS011;4771;48.726;9.006;2022-09-14T08:05:18;7.47;;;2.70;;
9465;SDS011;4771;48.726;9.006;2022-09-14T08:07:45;7.60;;;3.28;;
9465;SDS011;4771;48.726;9.006;2022-09-14T08:10:12;7.25;;;2.72;;
9465;SDS011;4771;48.726;9.006;2022-09-14T08:12:40;4.15;;;3.00;;
9465;SDS011;4771;48.726;9.006;2022-09-14T08:15:07;5.13;;;2.30;;
9465;SDS011;4771;48.726;9.006;2022-09-14T08:17:35;4.25;;;2.75;;
9465;SDS011;4771;48.726;9.006;2022-09-14T08:20:02;4.57;;;2.45;;
9465;SDS011;4771;48.726;9.006;2022-09-14T08:22:31;4.68;;;2.28;;
9465;SDS011;4771;48.726;9.006;2022-09-14T08:24:58;6.25;;;3.88;;
9465;SDS011;4771;48.726;9.006;2022-09-14T08:27:24;5.82;;;3.25;;
9465;SDS011;4771;48.726;9.006;2022-09-14T08:29:53;5.10;;;2.42;;
9465;SDS011;4771;48.726;9.006;2022-09-14T08:32:20;3.67;;;2.38;;
9465;SDS011;4771;48.726;9.006;2022-09-14T08:34:47;5.25;;;2.15;;
9465;SDS011;4771;48.726;9.006;2022-09-14T08:37:16;4.25;;;2.58;;
9465;SDS011;4771;48.726;9.006;2022-09-14T08:39:43;5.82;;;2.40;;
9465;SDS011;4771;48.726;9.006;2022-09-14T08:42:10;4.68;;;2.42;;
9465;SDS011;4771;48.726;9.006;2022-09-14T08:44:41;5.75;;;2.20;;
9465;SDS011;4771;48.726;9.006;2022-09-14T08:47:12;3.78;;;2.15;;
9465;SDS011;4771;48.726;9.006;2022-09-14T08:49:44;6.05;;;2.50;;
9465;SDS011;4771;48.726;9.006;2022-09-14T08:52:14;6.63;;;2.53;;
9465;SDS011;4771;48.726;9.006;2022-09-14T08:54:51;4.82;;;2.40;;
9465;SDS011;4771;48.726;9.006;2022-09-14T08:57:21;6.60;;;2.10;;
9465;SDS011;4771;48.726;9.006;2022-09-14T08:59:59;3.88;;;1.92;;
9465;SDS011;4771;48.726;9.006;2022-09-14T09:02:39;9.10;;;2.25;;
9465;SDS011;4771;48.726;9.006;2022-09-14T09:05:24;3.33;;;2.10;;
9465;SDS011;4771;48.726;9.006;2022-09-14T09:08:00;5.10;;;1.95;;
9465;SDS011;4771;48.726;9.006;2022-09-14T09:10:33;2.90;;;2.22;;
9465;SDS011;4771;48.726;9.006;2022-09-14T09:13:03;6.97;;;4.45;;
9465;SDS011;4771;48.726;9.006;2022-09-14T09:15:40;2.78;;;1.80;;
9465;SDS011;4771;48.726;9.006;2022-09-14T09:18:12;3.70;;;1.95;;
9465;SDS011;4771;48.726;9.006;2022-09-14T09:20:45;2.47;;;1.63;;
9465;SDS011;4771;48.726;9.006;2022-09-14T09:23:16;3.00;;;1.92;;
9465;SDS011;4771;48.726;9.006;2022-09-14T09:25:47;3.60;;;1.83;;
9465;SDS011;4771;48.726;9.006;2022-09-14T09:28:19;5.82;;;1.92;;
9465;SDS011;4771;48.726;9.006;2022-09-14T09:30:48;3.67;;;2.00;;
9465;SDS011;4771;48.726;9.006;2022-09-14T09:33:17;4.97;;;1.92;;
9465;SDS011;4771;48.726;9.006;2022-09-14T09:35:47;4.65;;;2.10;;
9465;SDS011;4771;48.726;9.006;2022-09-14T09:38:15;4.10;;;1.92;;
9465;SDS011;4771;48.726;9.006;2022-09-14T09:40:49;7.45;;;2.00;;
9465;SDS011;4771;48.726;9.006;2022-09-14T09:43:19;4.13;;;2.22;;
9465;SDS011;4771;48.726;9.006;2022-09-14T09:45:54;4.55;;;1.92;;
9465;SDS011;4771;48.726;9.006;2022-09-14T09:48:28;3.90;;;2.10;;
9465;SDS011;4771;48.726;9.006;2022-09-14T09:51:00;5.65;;;2.08;;
9465;SDS011;4771;48.726;9.006;2022-09-14T09:53:30;7.97;;;2.20;;
9465;SDS011;4771;48.726;9.006;2022-09-14T09:55:59;4.85;;;2.00;;
9465;SDS011;4771;48.726;9.006;2022-09-14T09:58:29;4.90;;;1.90;;
9465;SDS011;4771;48.726;9.006;2022-09-14T10:00:59;3.67;;;1.80;;
9465;SDS011;4771;48.726;9.006;2022-09-14T10:03:30;3.25;;;1.80;;
9465;SDS011;4771;48.726;9.006;2022-09-14T10:06:03;3.08;;;2.10;;
9465;SDS011;4771;48.726;9.006;2022-09-14T10:08:38;4.82;;;1.80;;
9465;SDS011;4771;48.726;9.006;2022-09-14T10:13:57;3.47;;;1.85;;
9465;SDS011;4771;48.726;9.006;2022-09-14T10:16:24;4.25;;;1.90;;
9465;SDS011;4771;48.726;9.006;2022-09-14T10:18:59;4.70;;;2.00;;
9465;SDS011;4771;48.726;9.006;2022-09-14T10:21:27;3.60;;;1.70;;
9465;SDS011;4771;48.726;9.006;2022-09-14T10:24:01;4.00;;;1.95;;
9465;SDS011;4771;48.726;9.006;2022-09-14T10:26:31;2.92;;;1.55;;
9465;SDS011;4771;48.726;9.006;2022-09-14T10:31:53;4.60;;;1.95;;
9465;SDS011;4771;48.726;9.006;2022-09-14T10:34:27;5.47;;;1.90;;
9465;SDS011;4771;48.726;9.006;2022-09-14T10:36:56;2.95;;;1.80;;
9465;SDS011;4771;48.726;9.006;2022-09-14T10:39:33;6.88;;;2.50;;
9465;SDS011;4771;48.726;9.006;2022-09-14T10:42:04;3.70;;;1.85;;
9465;SDS011;4771;48.726;9.006;2022-09-14T10:44:44;5.05;;;1.70;;
9465;SDS011;4771;48.726;9.006;2022-09-14T10:47:25;5.05;;;1.70;;
9465;SDS011;4771;48.726;9.006;2022-09-14T10:50:08;2.83;;;1.75;;
9465;SDS011;4771;48.726;9.006;2022-09-14T10:53:00;3.65;;;1.75;;
9465;SDS011;4771;48.726;9.006;2022-09-14T10:55:37;4.03;;;1.80;;
9465;SDS011;4771;48.726;9.006;2022-09-14T10:58:16;6.20;;;1.65;;
9465;SDS011;4771;48.726;9.006;2022-09-14T11:00:57;4.20;;;1.73;;
9465;SDS011;4771;48.726;9.006;2022-09-14T11:03:49;3.33;;;1.75;;
9465;SDS011;4771;48.726;9.006;2022-09-14T11:06:28;4.50;;;2.00;;
9465;SDS011;4771;48.726;9.006;2022-09-14T11:09:04;10.00;;;2.05;;
9465;SDS011;4771;48.726;9.006;2022-09-14T11:11:38;7.28;;;2.28;;
9465;SDS011;4771;48.726;9.006;2022-09-14T11:14:18;2.83;;;1.52;;
9465;SDS011;4771;48.726;9.006;2022-09-14T11:16:58;5.63;;;2.00;;
9465;SDS011;4771;48.726;9.006;2022-09-14T11:19:38;3.70;;;1.50;;
9465;SDS011;4771;48.726;9.006;2022-09-14T11:22:13;5.75;;;1.73;;
9465;SDS011;4771;48.726;9.006;2022-09-14T11:24:46;4.05;;;1.63;;
9465;SDS011;4771;48.726;9.006;2022-09-14T11:27:19;4.10;;;1.63;;
9465;SDS011;4771;48.726;9.006;2022-09-14T11:29:52;3.33;;;1.65;;
9465;SDS011;4771;48.726;9.006;2022-09-14T11:32:24;7.55;;;1.63;;
9465;SDS011;4771;48.726;9.006;2022-09-14T11:34:56;2.22;;;1.40;;
9465;SDS011;4771;48.726;9.006;2022-09-14T11:37:31;2.95;;;1.48;;
9465;SDS011;4771;48.726;9.006;2022-09-14T11:40:07;3.40;;;1.67;;
9465;SDS011;4771;48.726;9.006;2022-09-14T11:42:44;4.20;;;1.80;;
9465;SDS011;4771;48.726;9.006;2022-09-14T11:45:18;6.07;;;1.90;;
9465;SDS011;4771;48.726;9.006;2022-09-14T11:47:50;2.88;;;1.58;;
9465;SDS011;4771;48.726;9.006;2022-09-14T11:50:23;6.85;;;2.78;;
9465;SDS011;4771;48.726;9.006;2022-09-14T11:52:57;5.63;;;3.80;;
9465;SDS011;4771;48.726;9.006;2022-09-14T11:55:34;5.30;;;1.70;;
9465;SDS011;4771;48.726;9.006;2022-09-14T11:58:06;3.67;;;2.03;;
9465;SDS011;4771;48.726;9.006;2022-09-14T12:00:58;3.53;;;1.70;;
9465;SDS011;4771;48.726;9.006;2022-09-14T12:06:40;2.20;;;1.60;;
9465;SDS011;4771;48.726;9.006;2022-09-14T12:09:41;5.88;;;1.90;;
9465;SDS011;4771;48.726;9.006;2022-09-14T12:12:29;4.18;;;1.95;;
9465;SDS011;4771;48.726;9.006;2022-09-14T12:15:17;6.05;;;1.70;;
9465;SDS011;4771;48.726;9.006;2022-09-14T12:17:48;5.20;;;1.90;;
9465;SDS011;4771;48.726;9.006;2022-09-14T12:23:12;5.10;;;1.88;;
9465;SDS011;4771;48.726;9.006;2022-09-14T12:25:59;5.57;;;3.80;;
9465;SDS011;4771;48.726;9.006;2022-09-14T12:28:37;5.57;;;3.15;;
9465;SDS011;4771;48.726;9.006;2022-09-14T12:31:12;7.95;;;2.03;;
9465;SDS011;4771;48.726;9.006;2022-09-14T12:34:12;6.93;;;1.67;;
9465;SDS011;4771;48.726;9.006;2022-09-14T12:36:58;4.43;;;2.20;;
9465;SDS011;4771;48.726;9.006;2022-09-14T12:39:40;3.88;;;2.00;;
9465;SDS011;4771;48.726;9.006;2022-09-14T12:42:52;4.28;;;1.90;;
9465;SDS011;4771;48.726;9.006;2022-09-14T12:51:21;4.78;;;2.10;;
9465;SDS011;4771;48.726;9.006;2022-09-14T12:53:56;6.80;;;2.47;;
9465;SDS011;4771;48.726;9.006;2022-09-14T12:56:36;3.50;;;1.90;;
9465;SDS011;4771;48.726;9.006;2022-09-14T12:59:09;6.00;;;2.40;;
9465;SDS011;4771;48.726;9.006;2022-09-14T13:01:43;5.32;;;2.60;;
9465;SDS011;4771;48.726;9.006;2022-09-14T13:04:16;5.32;;;2.20;;
9465;SDS011;4771;48.726;9.006;2022-09-14T13:06:48;5.93;;;2.38;;
9465;SDS011;4771;48.726;9.006;2022-09-14T13:09:18;7.28;;;2.33;;
9465;SDS011;4771;48.726;9.006;2022-09-14T13:11:47;4.72;;;2.20;;
9465;SDS011;4771;48.726;9.006;2022-09-14T13:14:21;4.10;;;2.00;;
9465;SDS011;4771;48.726;9.006;2022-09-14T13:16:51;3.10;;;2.33;;
9465;SDS011;4771;48.726;9.006;2022-09-14T13:19:20;4.60;;;2.15;;
9465;SDS011;4771;48.726;9.006;2022-09-14T13:21:50;5.10;;;2.42;;
9465;SDS011;4771;48.726;9.006;2022-09-14T13:24:19;4.03;;;2.42;;
9465;SDS011;4771;48.726;9.006;2022-09-14T13:26:52;4.75;;;2.65;;
9465;SDS011;4771;48.726;9.006;2022-09-14T13:29:23;6.25;;;2.08;;
9465;SDS011;4771;48.726;9.006;2022-09-14T13:31:51;5.40;;;1.98;;
9465;SDS011;4771;48.726;9.006;2022-09-14T13:34:20;6.10;;;2.90;;
9465;SDS011;4771;48.726;9.006;2022-09-14T13:36:49;2.78;;;1.92;;
9465;SDS011;4771;48.726;9.006;2022-09-14T13:39:22;5.43;;;2.20;;
9465;SDS011;4771;48.726;9.006;2022-09-14T13:41:51;1.88;;;1.60;;
9465;SDS011;4771;48.726;9.006;2022-09-14T13:44:19;4.82;;;1.92;;
9465;SDS011;4771;48.726;9.006;2022-09-14T13:46:51;4.78;;;1.67;;
9465;SDS011;4771;48.726;9.006;2022-09-14T13:49:20;6.35;;;1.80;;
9465;SDS011;4771;48.726;9.006;2022-09-14T13:51:47;3.83;;;1.63;;
9465;SDS011;4771;48.726;9.006;2022-09-14T13:54:15;2.85;;;1.70;;
9465;SDS011;4771;48.726;9.006;2022-09-14T13:56:44;2.50;;;1.70;;
9465;SDS011;4771;48.726;9.006;2022-09-14T13:59:13;2.00;;;1.40;;
9465;SDS011;4771;48.726;9.006;2022-09-14T14:01:42;2.60;;;1.63;;
9465;SDS011;4771;48.726;9.006;2022-09-14T14:04:21;1.55;;;1.30;;
9465;SDS011;4771;48.726;9.006;2022-09-14T14:06:57;3.95;;;1.67;;
9465;SDS011;4771;48.726;9.006;2022-09-14T14:09:36;2.88;;;1.50;;
9465;SDS011;4771;48.726;9.006;2022-09-14T14:12:08;2.78;;;1.65;;
9465;SDS011;4771;48.726;9.006;2022-09-14T14:14:37;4.38;;;2.10;;
9465;SDS011;4771;48.726;9.006;2022-09-14T14:23:17;3.72;;;1.80;;
9465;SDS011;4771;48.726;9.006;2022-09-14T14:25:47;3.40;;;2.17;;
9465;SDS011;4771;48.726;9.006;2022-09-14T14:28:21;3.75;;;2.00;;
9465;SDS011;4771;48.726;9.006;2022-09-14T14:30:49;5.28;;;1.65;;
9465;SDS011;4771;48.726;9.006;2022-09-14T14:33:17;3.10;;;1.65;;
9465;SDS011;4771;48.726;9.006;2022-09-14T14:35:46;2.88;;;1.80;;
9465;SDS011;4771;48.726;9.006;2022-09-14T14:38:15;3.38;;;1.88;;
9465;SDS011;4771;48.726;9.006;2022-09-14T14:40:43;2.58;;;1.60;;
9465;SDS011;4771;48.726;9.006;2022-09-14T14:43:14;3.92;;;1.60;;
9465;SDS011;4771;48.726;9.006;2022-09-14T14:45:44;4.28;;;1.85;;
9465;SDS011;4771;48.726;9.006;2022-09-14T14:48:11;4.55;;;1.48;;
9465;SDS011;4771;48.726;9.006;2022-09-14T14:50:38;4.82;;;1.50;;
9465;SDS011;4771;48.726;9.006;2022-09-14T14:53:06;5.75;;;2.63;;
9465;SDS011;4771;48.726;9.006;2022-09-14T14:55:34;3.08;;;1.80;;
9465;SDS011;4771;48.726;9.006;2022-09-14T14:58:02;3.33;;;1.50;;
9465;SDS011;4771;48.726;9.006;2022-09-14T15:00:32;3.13;;;1.33;;
9465;SDS011;4771;48.726;9.006;2022-09-14T15:03:00;1.75;;;1.27;;
9465;SDS011;4771;48.726;9.006;2022-09-14T15:05:27;5.03;;;1.50;;
9465;SDS011;4771;48.726;9.006;2022-09-14T15:07:55;3.25;;;1.38;;
9465;SDS011;4771;48.726;9.006;2022-09-14T15:10:24;1.67;;;1.40;;
9465;SDS011;4771;48.726;9.006;2022-09-14T15:12:52;2.42;;;1.05;;
9465;SDS011;4771;48.726;9.006;2022-09-14T15:15:21;1.67;;;1.20;;
9465;SDS011;4771;48.726;9.006;2022-09-14T15:17:49;2.97;;;1.67;;
9465;SDS011;4771;48.726;9.006;2022-09-14T15:20:16;2.70;;;1.65;;
9465;SDS011;4771;48.726;9.006;2022-09-14T15:22:44;2.65;;;1.60;;
9465;SDS011;4771;48.726;9.006;2022-09-14T15:25:11;2.28;;;1.38;;
9465;SDS011;4771;48.726;9.006;2022-09-14T15:27:41;3.75;;;1.85;;
9465;SDS011;4771;48.726;9.006;2022-09-14T15:30:09;5.55;;;1.70;;
9465;SDS011;4771;48.726;9.006;2022-09-14T15:32:37;4.05;;;1.50;;
9465;SDS011;4771;48.726;9.006;2022-09-14T15:35:04;2.58;;;1.25;;
9465;SDS011;4771;48.726;9.006;2022-09-14T15:37:32;2.25;;;1.23;;
9465;SDS011;4771;48.726;9.006;2022-09-14T15:39:59;1.95;;;1.27;;
9465;SDS011;4771;48.726;9.006;2022-09-14T15:42:26;1.90;;;1.33;;
9465;SDS011;4771;48.726;9.006;2022-09-14T15:44:55;2.05;;;1.20;;
9465;SDS011;4771;48.726;9.006;2022-09-14T15:47:22;2.45;;;1.25;;
9465;SDS011;4771;48.726;9.006;2022-09-14T15:49:49;3.55;;;1.25;;
9465;SDS011;4771;48.726;9.006;2022-09-14T15:52:16;2.90;;;1.30;;
9465;SDS011;4771;48.726;9.006;2022-09-14T15:54:44;1.73;;;1.20;;
9465;SDS011;4771;48.726;9.006;2022-09-14T15:57:11;1.73;;;1.20;;
9465;SDS011;4771;48.726;9.006;2022-09-14T15:59:38;4.22;;;1.42;;